Time;durP1;ratioP1;P1;durP2;ratioP2;P2;SDS_P1;SDS_P2;PMS_P1;PMS_P2;Temp;Humidity;BMP_temperature;BMP_pressure;BME280_temperature;BME280_humidity;BME280_pressure;Samples;Min_cycle;Max_cycle;Signal;HPM_P1;HPM_P2
2022/05/14 00:01:29;;;;;;;7.72;2.08;;;;;;;9.42;100.00;101081.16;5050355;28;20024;-60
2022/05/14 00:03:55;;;;;;;4.47;2.38;;;;;;;9.34;100.00;101067.44;5048780;28;20058;-60
2022/05/14 00:06:23;;;;;;;3.50;1.65;;;;;;;9.27;100.00;101066.81;5050516;28;20028;-60
2022/05/14 00:08:49;;;;;;;3.63;2.10;;;;;;;9.35;100.00;101077.03;5048248;28;20036;-59
2022/05/14 00:14:03;;;;;;;8.75;2.58;;;;;;;9.30;100.00;101068.47;5049646;28;20094;-60
2022/05/14 00:16:31;;;;;;;8.85;2.33;;;;;;;9.29;100.00;101069.38;5048123;28;20024;-60
2022/05/14 00:18:57;;;;;;;10.60;2.47;;;;;;;8.84;100.00;100988.75;5048024;28;20139;-60
2022/05/14 00:21:22;;;;;;;4.97;2.15;;;;;;;9.30;100.00;101076.31;5047675;28;20924;-60
2022/05/14 00:23:48;;;;;;;5.15;2.35;;;;;;;9.29;100.00;101067.63;5048063;28;20186;-60
2022/05/14 00:26:13;;;;;;;5.95;2.30;;;;;;;9.31;100.00;101064.94;5048067;28;20079;-60
2022/05/14 00:28:39;;;;;;;4.55;2.28;;;;;;;9.08;100.00;101035.13;5048879;28;20791;-60
2022/05/14 00:31:05;;;;;;;4.68;2.45;;;;;;;9.19;100.00;101047.88;5047634;28;20961;-60
2022/05/14 00:33:30;;;;;;;6.25;2.15;;;;;;;8.90;100.00;100996.41;5048967;28;20042;-60
2022/05/14 00:35:56;;;;;;;6.13;2.47;;;;;;;8.95;100.00;101020.72;5049072;28;20028;-60
2022/05/14 00:38:22;;;;;;;5.40;2.28;;;;;;;9.05;100.00;101044.84;5046334;28;20151;-60
2022/05/14 00:40:55;;;;;;;11.60;2.47;;;;;;;9.00;100.00;101042.38;5047550;28;20916;-60
2022/05/14 00:43:21;;;;;;;5.57;2.00;;;;;;;8.61;100.00;100986.91;5048182;28;20143;-60
2022/05/14 00:46:00;;;;;;;3.88;2.13;;;;;;;8.96;100.00;101048.63;5047780;28;20270;-60
2022/05/14 00:48:32;;;;;;;4.47;2.38;;;;;;;8.91;100.00;101058.41;5031910;28;20029;-60
2022/05/14 00:50:57;;;;;;;7.32;2.10;;;;;;;8.84;100.00;101062.13;5027092;28;20085;-60
2022/05/14 00:53:31;;;;;;;3.58;2.10;;;;;;;8.74;100.00;101058.09;5028149;28;20049;-60
2022/05/14 00:55:59;;;;;;;3.65;1.90;;;;;;;8.65;100.00;101072.34;5042588;28;20027;-60
2022/05/14 00:58:56;;;;;;;9.57;2.35;;;;;;;8.56;100.00;101066.53;5028624;28;20029;-60
2022/05/14 01:01:22;;;;;;;7.40;2.63;;;;;;;8.27;100.00;101027.25;5026136;28;20024;-59
2022/05/14 01:03:47;;;;;;;9.40;2.40;;;;;;;8.42;100.00;101053.00;5027027;28;20036;-60
2022/05/14 01:06:16;;;;;;;4.50;1.92;;;;;;;8.44;100.00;101066.91;5027358;28;20036;-60
2022/05/14 01:08:42;;;;;;;3.97;2.35;;;;;;;8.33;100.00;101048.91;5042663;28;20026;-59
2022/05/14 01:11:08;;;;;;;5.70;2.35;;;;;;;8.33;100.00;101056.78;5027402;28;20025;-60
2022/05/14 01:13:34;;;;;;;4.22;1.92;;;;;;;8.29;100.00;101062.13;5028278;28;20055;-60
2022/05/14 01:16:01;;;;;;;4.30;1.80;;;;;;;8.23;100.00;101064.00;5026784;28;20123;-60
2022/05/14 01:18:29;;;;;;;8.60;2.42;;;;;;;8.13;100.00;101049.47;5025629;28;20936;-60
2022/05/14 01:21:01;;;;;;;4.95;2.20;;;;;;;8.15;100.00;101059.91;5026332;28;20037;-60
2022/05/14 01:26:36;;;;;;;4.82;2.35;;;;;;;7.89;100.00;101018.81;5020768;28;20102;-60
2022/05/14 01:29:03;;;;;;;5.75;3.03;;;;;;;8.17;100.00;101073.81;5044881;28;20621;-60
2022/05/14 01:31:29;;;;;;;12.43;2.92;;;;;;;8.14;100.00;101073.91;5048010;28;20020;-60
2022/05/14 01:33:59;;;;;;;9.95;2.55;;;;;;;8.12;100.00;101071.31;5048749;28;20038;-60
2022/05/14 01:36:24;;;;;;;6.45;2.60;;;;;;;8.10;100.00;101083.59;5046788;28;20028;-60
2022/05/14 01:38:50;;;;;;;4.93;2.60;;;;;;;7.99;100.00;101053.41;5047613;28;20024;-60
2022/05/14 01:41:15;;;;;;;4.85;2.22;;;;;;;8.03;100.00;101066.34;5045500;28;20055;-60
2022/05/14 01:43:41;;;;;;;7.00;2.40;;;;;;;7.98;100.00;101065.63;5047843;28;20034;-60
2022/05/14 01:46:07;;;;;;;4.45;2.33;;;;;;;7.90;100.00;101059.78;5047626;28;20024;-60
2022/05/14 01:48:32;;;;;;;8.77;2.65;;;;;;;7.86;100.00;101063.38;5046858;28;20759;-60
2022/05/14 01:50:57;;;;;;;8.23;2.63;;;;;;;7.85;100.00;101066.88;5047744;28;20028;-60
2022/05/14 01:53:23;;;;;;;5.25;2.42;;;;;;;7.75;100.00;101054.97;5047684;28;20028;-60
2022/05/14 01:55:48;;;;;;;7.38;2.42;;;;;;;7.59;100.00;101040.59;5031815;28;20919;-59
2022/05/14 02:00:57;;;;;;;8.67;2.70;;;;;;;7.65;100.00;101069.19;5026680;28;20059;-60
2022/05/14 02:03:23;;;;;;;4.72;1.88;;;;;;;7.42;100.00;101024.50;5026318;28;21291;-60
2022/05/14 02:05:48;;;;;;;3.65;2.08;;;;;;;7.43;100.00;101040.16;5026258;28;20086;-60
2022/05/14 02:08:14;;;;;;;9.45;3.42;;;;;;;7.55;100.00;101057.25;5026404;28;20864;-60
2022/05/14 02:10:39;;;;;;;5.53;2.20;;;;;;;7.51;100.00;101055.63;5026113;28;20029;-60
2022/05/14 02:13:05;;;;;;;6.00;2.78;;;;;;;7.32;100.00;101033.50;5025827;28;20807;-60
2022/05/14 02:15:30;;;;;;;4.47;2.70;;;;;;;7.42;100.00;101042.81;5026161;28;20033;-60
2022/05/14 02:17:57;;;;;;;4.32;2.47;;;;;;;7.46;100.00;101062.75;5027648;28;20906;-60
2022/05/14 02:20:24;;;;;;;4.72;1.90;;;;;;;7.41;100.00;101056.78;5025332;28;20032;-60
2022/05/14 02:22:49;;;;;;;5.43;2.67;;;;;;;7.41;100.00;101064.63;5025544;28;20085;-60
2022/05/14 02:25:14;;;;;;;9.02;2.58;;;;;;;7.13;100.00;101020.91;5026294;28;20358;-60
2022/05/14 02:27:40;;;;;;;4.65;2.63;;;;;;;7.36;100.00;101062.16;5027195;28;20035;-60
2022/05/14 02:30:06;;;;;;;4.28;1.63;;;;;;;7.41;100.00;101069.84;5027078;28;20991;-60
2022/05/14 02:32:31;;;;;;;4.00;2.45;;;;;;;7.38;100.00;101069.94;5026034;28;20032;-60
2022/05/14 02:34:58;;;;;;;5.28;2.58;;;;;;;7.29;100.00;101054.50;5025758;28;20869;-60
2022/05/14 02:37:25;;;;;;;4.78;2.33;;;;;;;7.35;100.00;101072.63;5028094;28;20025;-60
2022/05/14 02:39:52;;;;;;;4.07;2.30;;;;;;;7.36;100.00;101071.75;5029026;28;20124;-60
2022/05/14 02:42:17;;;;;;;4.97;2.42;;;;;;;7.13;100.00;101039.19;5027002;28;20037;-60
2022/05/14 02:44:43;;;;;;;8.43;2.78;;;;;;;7.24;100.00;101058.97;5026347;28;20032;-60
2022/05/14 02:47:09;;;;;;;5.88;2.78;;;;;;;6.93;100.00;101017.94;5027053;28;20032;-60
2022/05/14 02:49:34;;;;;;;10.07;3.35;;;;;;;7.24;100.00;101062.44;5025871;28;20032;-60
2022/05/14 02:51:59;;;;;;;5.53;2.78;;;;;;;7.23;100.00;101060.75;5028406;28;20039;-60
2022/05/14 02:54:25;;;;;;;8.13;2.42;;;;;;;7.10;100.00;101044.50;5031431;28;20029;-59
2022/05/14 02:56:51;;;;;;;4.22;2.17;;;;;;;7.15;100.00;101057.47;5029540;28;20082;-59
2022/05/14 02:59:16;;;;;;;4.72;2.30;;;;;;;7.15;100.00;101068.78;5030007;28;20471;-60
2022/05/14 03:01:48;;;;;;;3.88;2.28;;;;;;;7.10;100.00;101064.53;5030715;28;20742;-59
2022/05/14 03:04:16;;;;;;;11.02;3.17;;;;;;;7.12;100.00;101063.63;5028261;28;20041;-60
2022/05/14 03:06:41;;;;;;;5.50;2.40;;;;;;;7.16;100.00;101070.47;5029447;28;20036;-59
2022/05/14 03:09:06;;;;;;;6.70;2.65;;;;;;;7.11;100.00;101056.69;5029014;28;20056;-60
2022/05/14 03:11:32;;;;;;;5.53;3.15;;;;;;;7.05;100.00;101035.94;5027119;28;20029;-59
2022/05/14 03:13:57;;;;;;;6.38;3.28;;;;;;;7.23;100.00;101060.75;5029450;28;20029;-59
2022/05/14 03:16:23;;;;;;;7.75;2.67;;;;;;;7.26;100.00;101068.50;5029726;28;20834;-60
2022/05/14 03:18:49;;;;;;;5.45;2.92;;;;;;;7.28;100.00;101065.84;5028115;28;20128;-60
2022/05/14 03:21:14;;;;;;;6.55;2.60;;;;;;;7.26;100.00;101054.56;5027674;28;20048;-60
2022/05/14 03:23:39;;;;;;;5.20;2.67;;;;;;;7.26;100.00;101057.19;5028265;28;20075;-59
2022/05/14 03:26:05;;;;;;;9.07;3.03;;;;;;;7.24;100.00;101040.66;5028489;28;20028;-60
2022/05/14 03:28:30;;;;;;;6.40;2.78;;;;;;;7.40;100.00;101060.31;5029180;28;20082;-60
2022/05/14 03:30:57;;;;;;;5.90;2.47;;;;;;;7.48;100.00;101060.94;5029450;28;20031;-60
2022/05/14 03:33:22;;;;;;;8.85;3.33;;;;;;;7.52;100.00;101062.56;5028959;28;20033;-61
2022/05/14 03:35:48;;;;;;;5.90;2.92;;;;;;;7.47;100.00;101065.31;5029803;28;20930;-60
2022/05/14 03:38:13;;;;;;;5.35;2.67;;;;;;;7.25;100.00;101024.09;5027885;28;20044;-60
2022/05/14 03:40:39;;;;;;;7.10;3.10;;;;;;;7.16;100.00;101002.53;5028185;28;20889;-60
2022/05/14 03:43:04;;;;;;;8.10;3.40;;;;;;;7.46;100.00;101062.75;5027034;28;20029;-60
2022/05/14 03:45:30;;;;;;;6.95;2.40;;;;;;;7.40;100.00;101052.47;5030990;28;20860;-59
2022/05/14 03:47:55;;;;;;;7.35;2.50;;;;;;;7.36;100.00;101056.91;5028052;28;20162;-59
2022/05/14 03:50:20;;;;;;;16.25;3.00;;;;;;;7.35;100.00;101060.41;5030303;28;20852;-59
2022/05/14 03:52:46;;;;;;;14.27;2.97;;;;;;;7.36;100.00;101062.16;5034903;28;20802;-59
2022/05/14 03:55:11;;;;;;;4.55;2.58;;;;;;;7.36;100.00;101069.13;5043315;28;20021;-59
2022/05/14 03:57:37;;;;;;;5.78;2.45;;;;;;;7.31;100.00;101058.78;5029301;28;20037;-59
2022/05/14 04:00:11;;;;;;;4.85;2.35;;;;;;;7.34;100.00;101063.06;5032021;28;20032;-60
2022/05/14 04:02:37;;;;;;;4.05;2.38;;;;;;;7.37;100.00;101068.22;5041117;28;20043;-60
2022/05/14 04:05:03;;;;;;;7.15;2.47;;;;;;;7.38;100.00;101073.41;5039211;28;20139;-60
2022/05/14 04:07:30;;;;;;;4.68;2.33;;;;;;;7.40;100.00;101068.16;5043059;28;20144;-60
2022/05/14 04:09:55;;;;;;;5.75;2.35;;;;;;;7.42;100.00;101076.78;5044403;28;20024;-61
2022/05/14 04:12:21;;;;;;;6.40;3.08;;;;;;;7.41;100.00;101075.06;5048450;28;20143;-60
2022/05/14 04:14:46;;;;;;;9.52;3.47;;;;;;;7.42;100.00;101072.44;5039848;28;20033;-60
2022/05/14 04:17:12;;;;;;;5.78;2.63;;;;;;;7.46;100.00;101081.06;5044091;28;20037;-60
2022/05/14 04:19:37;;;;;;;5.38;2.60;;;;;;;7.44;100.00;101075.00;5044226;28;20091;-59
2022/05/14 04:22:03;;;;;;;5.85;2.47;;;;;;;7.44;100.00;101069.75;5047034;28;20098;-59
2022/05/14 04:24:29;;;;;;;5.75;2.92;;;;;;;7.49;100.00;101073.13;5048924;28;20039;-60
2022/05/14 04:26:55;;;;;;;5.68;2.67;;;;;;;7.37;100.00;101053.38;5045160;28;20051;-59
2022/05/14 04:29:21;;;;;;;6.55;2.83;;;;;;;7.54;100.00;101081.69;5042001;28;20037;-59
2022/05/14 04:31:46;;;;;;;4.72;2.55;;;;;;;7.41;100.00;101041.09;5050454;28;20039;-60
2022/05/14 04:34:11;;;;;;;7.88;2.42;;;;;;;7.55;100.00;101063.34;5050196;28;20028;-59
2022/05/14 04:36:37;;;;;;;6.30;3.38;;;;;;;7.59;100.00;101067.59;5053854;28;20028;-59
2022/05/14 04:39:03;;;;;;;7.97;3.28;;;;;;;7.65;100.00;101075.28;5055518;28;20027;-60
2022/05/14 04:41:30;;;;;;;6.13;2.90;;;;;;;7.71;100.00;101077.72;5056948;28;20091;-60
2022/05/14 04:43:59;;;;;;;7.70;3.15;;;;;;;7.75;100.00;101075.03;5061619;28;20031;-60
2022/05/14 04:46:25;;;;;;;10.25;3.58;;;;;;;7.83;100.00;101076.53;5056820;28;20030;-60
2022/05/14 04:48:50;;;;;;;8.57;3.75;;;;;;;7.91;100.00;101085.00;5058672;28;20850;-59
2022/05/14 04:51:16;;;;;;;11.70;4.38;;;;;;;8.01;100.00;101081.22;5045566;28;20993;-60
2022/05/14 04:53:41;;;;;;;8.93;3.70;;;;;;;8.09;100.00;101078.41;5047441;28;20093;-59
2022/05/14 04:56:07;;;;;;;5.90;3.40;;;;;;;8.18;100.00;101076.38;5047350;28;20661;-60
2022/05/14 04:58:33;;;;;;;7.78;3.85;;;;;;;8.25;100.00;101071.81;5047073;28;20051;-60
2022/05/14 05:00:58;;;;;;;11.60;4.32;;;;;;;8.37;100.00;101079.34;5050995;28;20051;-60
2022/05/14 05:03:24;;;;;;;19.77;4.72;;;;;;;8.48;100.00;101079.03;5049048;28;20060;-59
2022/05/14 05:05:55;;;;;;;8.35;3.70;;;;;;;8.41;100.00;101062.66;5046203;28;20090;-60
2022/05/14 05:08:22;;;;;;;13.52;4.53;;;;;;;8.63;100.00;101083.78;5048772;28;20032;-60
2022/05/14 05:10:48;;;;;;;8.27;2.80;;;;;;;8.73;100.00;101096.53;5048435;28;20028;-60
2022/05/14 05:13:17;;;;;;;10.15;4.15;;;;;;;8.40;100.00;101031.25;5048335;28;20109;-60
2022/05/14 05:15:42;;;;;;;8.23;4.03;;;;;;;8.90;100.00;101095.13;5052047;28;20024;-60
2022/05/14 05:18:09;;;;;;;7.88;3.45;;;;;;;8.96;100.00;101114.13;5048910;28;20135;-60
2022/05/14 05:20:36;;;;;;;8.65;3.92;;;;;;;9.02;100.00;101105.25;5049852;28;20089;-59
2022/05/14 05:23:02;;;;;;;6.43;3.88;;;;;;;9.10;100.00;101108.47;5048905;28;20059;-60
2022/05/14 05:25:28;;;;;;;8.93;3.67;;;;;;;9.17;100.00;101113.47;5049161;28;20761;-60
2022/05/14 05:27:53;;;;;;;12.60;3.55;;;;;;;9.26;100.00;101111.44;5048912;28;20032;-60
2022/05/14 05:30:19;;;;;;;8.38;3.83;;;;;;;9.35;100.00;101112.00;5049715;28;20028;-60
2022/05/14 05:32:44;;;;;;;7.78;3.50;;;;;;;9.44;100.00;101119.53;5049572;28;20054;-59
2022/05/14 05:35:10;;;;;;;8.18;3.85;;;;;;;9.39;100.00;101104.88;5046772;28;20024;-60
2022/05/14 05:37:35;;;;;;;7.43;3.53;;;;;;;9.58;100.00;101119.06;5047692;28;20135;-60
2022/05/14 05:40:01;;;;;;;7.35;3.80;;;;;;;9.66;100.00;101127.53;5051473;28;20025;-60
2022/05/14 05:42:26;;;;;;;7.70;3.88;;;;;;;9.72;100.00;101124.69;5048300;28;20031;-60
2022/05/14 05:44:52;;;;;;;9.85;3.47;;;;;;;9.63;100.00;101096.19;5048373;28;20040;-60
2022/05/14 05:47:18;;;;;;;16.40;4.03;;;;;;;9.86;100.00;101119.84;5045616;28;20025;-60
2022/05/14 05:49:43;;;;;;;7.20;3.42;;;;;;;9.95;100.00;101119.50;5045532;28;20029;-60
2022/05/14 05:52:11;;;;;;;12.20;4.20;;;;;;;10.02;100.00;101123.63;5060700;28;20047;-60
2022/05/14 05:57:35;;;;;;;9.73;3.60;;;;;;;10.12;100.00;101116.25;5056928;28;20047;-60
2022/05/14 06:00:04;;;;;;;8.93;3.83;;;;;;;10.27;100.00;101133.25;5051347;28;20398;-60
2022/05/14 06:02:29;;;;;;;10.38;4.38;;;;;;;10.30;100.00;101130.50;5049703;28;20031;-60
2022/05/14 06:04:55;;;;;;;6.65;3.40;;;;;;;10.33;100.00;101117.25;5051226;28;20863;-60
2022/05/14 06:07:20;;;;;;;12.38;3.85;;;;;;;10.47;100.00;101134.22;5053670;28;20024;-60
2022/05/14 06:09:46;;;;;;;9.32;4.20;;;;;;;10.50;100.00;101125.38;5053359;28;20055;-60
2022/05/14 06:12:12;;;;;;;11.57;4.50;;;;;;;10.48;100.00;101108.78;5051697;28;20188;-60
2022/05/14 06:14:39;;;;;;;11.90;4.30;;;;;;;10.69;100.00;101131.63;5049713;28;20980;-60
2022/05/14 06:17:05;;;;;;;8.77;4.47;;;;;;;10.45;100.00;101074.75;5049822;28;20036;-60
2022/05/14 06:19:30;;;;;;;11.27;4.75;;;;;;;10.87;100.00;101128.28;5051819;28;20068;-60
2022/05/14 06:21:55;;;;;;;9.63;4.43;;;;;;;10.96;100.00;101133.16;5040335;28;20025;-60
2022/05/14 06:24:21;;;;;;;10.27;4.90;;;;;;;10.92;100.00;101121.03;5040630;28;20031;-60
2022/05/14 06:26:46;;;;;;;17.27;5.53;;;;;;;11.09;100.00;101142.25;5041728;28;20031;-60
2022/05/14 06:29:11;;;;;;;11.35;5.00;;;;;;;11.15;100.00;101128.03;5046747;28;20127;-60
2022/05/14 06:31:37;;;;;;;11.30;5.10;;;;;;;11.23;100.00;101132.03;5043084;28;20036;-60
2022/05/14 06:34:02;;;;;;;11.63;5.95;;;;;;;11.31;100.00;101134.38;5025594;28;20032;-60
2022/05/14 06:36:28;;;;;;;11.85;5.03;;;;;;;11.34;100.00;101136.00;5024916;28;20028;-60
2022/05/14 06:38:54;;;;;;;12.23;5.85;;;;;;;11.44;100.00;101129.44;5025154;28;20086;-60
2022/05/14 06:41:19;;;;;;;7.72;4.93;;;;;;;11.48;100.00;101138.94;5024547;28;20056;-60
2022/05/14 06:43:45;;;;;;;9.35;5.28;;;;;;;11.56;100.00;101136.81;5026089;28;20194;-59
2022/05/14 06:46:10;;;;;;;10.13;5.13;;;;;;;11.60;100.00;101141.88;5024800;28;20105;-59
2022/05/14 06:48:36;;;;;;;9.30;4.30;;;;;;;11.66;100.00;101138.16;5026307;28;20029;-59
2022/05/14 06:51:04;;;;;;;14.60;5.68;;;;;;;11.65;100.00;101123.28;5024671;28;20156;-60
2022/05/14 06:53:30;;;;;;;21.00;5.28;;;;;;;11.81;100.00;101134.88;5025701;28;20024;-60
2022/05/14 06:55:58;;;;;;;8.82;4.85;;;;;;;11.85;100.00;101144.38;5024575;28;20136;-60
2022/05/14 06:58:29;;;;;;;12.13;5.38;;;;;;;11.75;100.00;101135.16;5024314;28;20100;-60
2022/05/14 07:00:54;;;;;;;11.02;4.68;;;;;;;11.96;100.00;101171.09;5024459;28;20132;-60
2022/05/14 07:08:49;;;;;;;9.57;5.47;;;;;;;12.17;100.00;101154.31;5025196;28;20030;-60
2022/05/14 07:11:15;;;;;;;17.02;5.80;;;;;;;12.30;100.00;101160.75;5025491;28;20873;-60
2022/05/14 07:13:41;;;;;;;11.38;5.85;;;;;;;12.39;100.00;101156.00;5024677;28;20044;-60
2022/05/14 07:16:06;;;;;;;10.27;5.75;;;;;;;12.45;100.00;101147.81;5024467;28;20094;-60
2022/05/14 07:18:32;;;;;;;13.85;5.13;;;;;;;12.47;100.00;101153.88;5024321;28;20056;-60
2022/05/14 07:20:58;;;;;;;15.23;5.72;;;;;;;12.53;100.00;101158.88;5024140;28;20031;-60
2022/05/14 07:23:24;;;;;;;8.68;5.95;;;;;;;12.58;100.00;101148.94;5025486;28;20029;-61
2022/05/14 07:25:49;;;;;;;15.52;6.28;;;;;;;12.63;100.00;101136.44;5043161;28;20021;-60
2022/05/14 07:28:14;;;;;;;13.95;6.00;;;;;;;12.79;100.00;101143.53;5039234;28;20139;-60
2022/05/14 07:30:40;;;;;;;10.75;6.15;;;;;;;12.91;100.00;101152.63;5024105;28;20201;-60
2022/05/14 07:33:05;;;;;;;14.02;6.10;;;;;;;12.96;100.00;101144.53;5023855;28;20082;-60
2022/05/14 07:35:31;;;;;;;13.98;6.90;;;;;;;13.10;100.00;101158.81;5034000;28;20292;-60
2022/05/14 07:37:57;;;;;;;14.10;6.95;;;;;;;13.07;100.00;101123.75;5045618;28;20032;-60
2022/05/14 07:40:27;;;;;;;10.27;5.95;;;;;;;13.23;100.00;101143.22;5048934;28;20020;-60
2022/05/14 07:42:55;;;;;;;15.70;6.78;;;;;;;13.26;100.00;101133.34;5049911;28;20971;-60
2022/05/14 07:45:27;;;;;;;16.75;6.45;;;;;;;13.30;100.00;101140.22;5048032;28;20144;-60
2022/05/14 07:47:53;;;;;;;14.80;7.13;;;;;;;13.42;100.00;101148.44;5045988;28;20028;-60
2022/05/14 07:50:19;;;;;;;16.25;5.68;;;;;;;13.47;100.00;101151.69;5046562;28;20028;-60
2022/05/14 07:52:44;;;;;;;15.32;6.45;;;;;;;13.45;100.00;101146.50;5036361;28;20950;-60
2022/05/14 07:55:10;;;;;;;13.65;6.50;;;;;;;13.58;100.00;101149.38;5027780;28;20876;-60
2022/05/14 07:57:35;;;;;;;14.07;6.22;;;;;;;13.62;100.00;101145.66;5027905;28;20059;-60
2022/05/14 08:00:01;;;;;;;11.80;5.45;;;;;;;13.73;100.00;101154.72;5027348;28;20905;-60
2022/05/14 08:02:31;;;;;;;13.50;7.05;;;;;;;13.87;100.00;101155.81;5027217;28;20999;-60
2022/05/14 08:04:58;;;;;;;11.88;6.15;;;;;;;13.94;100.00;101151.91;5028829;28;20154;-60
2022/05/14 08:07:23;;;;;;;14.13;6.93;;;;;;;14.03;100.00;101147.00;5028145;28;21002;-60
2022/05/14 08:09:49;;;;;;;25.83;6.68;;;;;;;14.13;100.00;101148.22;5027337;28;20040;-60
2022/05/14 08:12:14;;;;;;;12.38;7.03;;;;;;;14.16;100.00;101137.50;5043144;28;20095;-64
2022/05/14 08:14:40;;;;;;;14.05;7.32;;;;;;;14.33;100.00;101156.00;5043924;28;20082;-60
2022/05/14 08:17:09;;;;;;;12.85;6.18;;;;;;;14.39;100.00;101143.38;5027567;28;20863;-60
2022/05/14 08:19:35;;;;;;;10.00;5.65;;;;;;;14.50;100.00;101148.97;5027360;28;20079;-60
2022/05/14 08:24:45;;;;;;;11.02;5.85;;;;;;;14.68;100.00;101150.59;5027390;28;20040;-60
2022/05/14 08:27:11;;;;;;;15.68;7.25;;;;;;;14.78;100.00;101157.94;5028155;28;20052;-60
2022/05/14 08:29:36;;;;;;;14.90;7.10;;;;;;;14.91;100.00;101147.50;5026245;28;20032;-60
2022/05/14 08:32:03;;;;;;;16.38;6.57;;;;;;;14.86;100.00;101127.53;5026872;28;20140;-60
2022/05/14 08:34:28;;;;;;;21.20;6.93;;;;;;;15.13;100.00;101157.75;5027573;28;20120;-60
2022/05/14 08:36:54;;;;;;;12.02;5.45;;;;;;;15.25;100.00;101157.91;5028491;28;20047;-60
2022/05/14 08:39:19;;;;;;;9.75;5.53;;;;;;;15.25;100.00;101147.31;5028877;28;20028;-60
2022/05/14 08:41:48;;;;;;;13.68;5.65;;;;;;;15.34;100.00;101146.75;5027423;28;20086;-60
2022/05/14 08:44:17;;;;;;;15.05;5.93;;;;;;;15.40;100.00;101150.88;5028824;28;20028;-60
2022/05/14 08:46:43;;;;;;;14.07;6.20;;;;;;;15.50;100.00;101151.22;5027532;28;20028;-60
2022/05/14 08:49:33;;;;;;;20.23;5.95;;;;;;;15.57;100.00;101153.44;5043838;28;20029;-60
2022/05/14 08:51:59;;;;;;;13.43;6.00;;;;;;;15.52;100.00;101118.38;5027075;28;20836;-60
2022/05/14 08:54:25;;;;;;;10.93;5.60;;;;;;;15.68;100.00;101129.78;5026994;28;20055;-60
2022/05/14 08:57:03;;;;;;;14.20;6.53;;;;;;;15.98;100.00;101158.91;5036008;28;20032;-60
2022/05/14 08:59:47;;;;;;;16.05;6.30;;;;;;;16.10;100.00;101157.31;5045652;28;20046;-60
2022/05/14 09:02:17;;;;;;;15.00;6.90;;;;;;;16.09;100.00;101145.84;5026746;28;20035;-60
2022/05/14 09:04:43;;;;;;;16.73;6.07;;;;;;;16.14;100.00;101154.38;5034301;28;20042;-60
2022/05/14 09:07:08;;;;;;;12.63;5.88;;;;;;;16.08;100.00;101128.25;5047300;28;20761;-60
2022/05/14 09:09:34;;;;;;;10.20;5.05;;;;;;;16.26;100.00;101143.00;5046719;28;20081;-60
2022/05/14 09:12:02;;;;;;;19.00;6.80;;;;;;;16.23;100.00;101122.00;5047046;28;20031;-60
2022/05/14 09:14:31;;;;;;;15.32;6.07;;;;;;;16.42;100.00;101142.06;5046881;28;20023;-60
2022/05/14 09:17:15;;;;;;;12.38;5.15;;;;;;;16.57;100.00;101141.13;5046894;28;20995;-60
2022/05/14 09:19:44;;;;;;;15.53;5.63;;;;;;;16.58;100.00;101142.84;5048061;28;20039;-60
2022/05/14 09:22:18;;;;;;;13.07;6.50;;;;;;;16.66;100.00;101141.41;5046830;28;20135;-60
2022/05/14 09:24:48;;;;;;;12.73;6.35;;;;;;;16.82;100.00;101142.16;5047277;28;20881;-60
2022/05/14 09:27:21;;;;;;;16.20;5.43;;;;;;;16.86;100.00;101145.47;5044989;28;20046;-60
2022/05/14 09:29:47;;;;;;;14.48;5.70;;;;;;;16.94;100.00;101145.78;5044715;28;20028;-61
2022/05/14 09:32:22;;;;;;;13.23;6.18;;;;;;;17.05;100.00;101148.63;5046474;28;20047;-60
2022/05/14 09:34:48;;;;;;;8.30;4.75;;;;;;;17.09;100.00;101134.19;5047548;28;20134;-60
2022/05/14 09:37:21;;;;;;;11.65;6.47;;;;;;;17.11;100.00;101136.72;5047079;28;20114;-60
2022/05/14 09:39:57;;;;;;;16.23;6.47;;;;;;;17.22;100.00;101144.84;5046549;28;20036;-60
2022/05/14 09:42:30;;;;;;;8.80;5.18;;;;;;;17.32;100.00;101135.31;5046661;28;20038;-61
2022/05/14 09:44:57;;;;;;;17.90;6.00;;;;;;;17.37;100.00;101131.41;5044793;28;20024;-61
2022/05/14 09:47:31;;;;;;;13.00;5.85;;;;;;;17.16;100.00;101098.31;5046084;28;20412;-60
2022/05/14 09:50:15;;;;;;;13.63;6.03;;;;;;;17.54;100.00;101135.59;5045389;28;20127;-60
2022/05/14 09:52:40;;;;;;;11.98;5.63;;;;;;;17.69;100.00;101128.44;5044763;28;20097;-61
2022/05/14 09:55:08;;;;;;;9.82;4.68;;;;;;;17.95;100.00;101130.16;5045661;28;20051;-60
2022/05/14 09:57:55;;;;;;;15.70;6.05;;;;;;;18.13;100.00;101136.00;5041363;28;20033;-60
2022/05/14 10:00:22;;;;;;;15.75;6.28;;;;;;;18.24;100.00;101134.31;5028602;28;20094;-60
2022/05/14 10:03:06;;;;;;;23.40;6.28;;;;;;;18.31;100.00;101142.72;5032541;28;20024;-60
2022/05/14 10:06:07;;;;;;;17.10;5.50;;;;;;;18.46;100.00;101135.44;5044128;28;20024;-60
2022/05/14 10:08:35;;;;;;;17.55;5.72;;;;;;;18.67;100.00;101133.94;5025360;28;20871;-60
2022/05/14 10:11:24;;;;;;;10.57;5.88;;;;;;;18.79;100.00;101138.41;5027805;28;20035;-60
2022/05/14 10:14:28;;;;;;;13.93;6.22;;;;;;;18.89;100.00;101139.44;5039029;28;20810;-61
2022/05/14 10:17:01;;;;;;;16.23;6.57;;;;;;;18.99;100.00;101137.78;5025814;28;20032;-60
2022/05/14 10:19:42;;;;;;;13.15;6.45;;;;;;;19.07;100.00;101132.72;5029944;28;20351;-61
2022/05/14 10:28:36;;;;;;;25.35;6.38;;;;;;;18.51;100.00;101104.91;5045494;28;20097;-61
2022/05/14 10:31:10;;;;;;;15.43;5.63;;;;;;;18.77;100.00;101135.81;5044344;28;21046;-60
2022/05/14 10:33:36;;;;;;;12.77;6.15;;;;;;;19.14;100.00;101111.81;5045957;28;20086;-60
2022/05/14 10:36:08;;;;;;;15.13;6.03;;;;;;;19.46;100.00;101128.09;5046281;28;20906;-60
2022/05/14 10:38:35;;;;;;;16.30;6.55;;;;;;;19.65;100.00;101128.41;5046589;28;20046;-61
2022/05/14 10:41:04;;;;;;;12.68;6.45;;;;;;;19.68;100.00;101117.50;5045767;28;20031;-61
2022/05/14 10:44:00;;;;;;;13.98;6.07;;;;;;;19.81;100.00;101124.44;5044760;28;20078;-61
2022/05/14 10:46:27;;;;;;;13.85;5.85;;;;;;;20.01;100.00;101122.06;5047158;28;20039;-61
2022/05/14 10:49:02;;;;;;;16.85;5.95;;;;;;;20.00;100.00;101123.88;5046307;28;20064;-61
2022/05/14 10:51:30;;;;;;;21.42;6.15;;;;;;;20.22;100.00;101123.88;5046407;28;20035;-61
2022/05/14 10:53:57;;;;;;;13.27;5.97;;;;;;;20.45;100.00;101098.06;5046448;28;20024;-61
2022/05/14 10:56:29;;;;;;;14.23;6.38;;;;;;;20.65;100.00;101115.19;5046630;28;20040;-61
2022/05/14 10:59:04;;;;;;;12.57;6.20;;;;;;;20.10;99.18;101092.84;5047324;28;20032;-61
2022/05/14 11:01:48;;;;;;;11.52;5.20;;;;;;;20.14;95.84;101120.97;5046033;28;20032;-61
2022/05/14 11:04:30;;;;;;;8.52;4.78;;;;;;;20.33;94.48;101121.25;5047045;28;20028;-61
2022/05/14 11:07:01;;;;;;;9.98;5.05;;;;;;;20.53;95.65;101116.13;5046499;28;20059;-61
2022/05/14 11:09:29;;;;;;;10.38;5.18;;;;;;;20.52;92.78;101112.63;5045921;28;20098;-61
2022/05/14 11:11:57;;;;;;;14.82;6.28;;;;;;;20.72;92.07;101111.84;5047827;28;20089;-61
2022/05/14 11:14:23;;;;;;;10.30;5.22;;;;;;;20.98;89.91;101112.44;5050045;28;20024;-61
2022/05/14 11:16:51;;;;;;;14.35;5.82;;;;;;;21.05;88.16;101118.97;5048520;28;20826;-61
2022/05/14 11:19:31;;;;;;;10.02;5.32;;;;;;;21.06;89.01;101120.66;5049859;28;20024;-61
2022/05/14 11:21:58;;;;;;;13.68;4.88;;;;;;;21.20;82.77;101117.72;5051056;28;20123;-61
2022/05/14 11:24:50;;;;;;;19.00;4.95;;;;;;;21.45;87.42;101110.31;5049460;28;20035;-61
2022/05/14 11:27:29;;;;;;;9.85;4.40;;;;;;;21.77;81.91;101106.59;5036153;28;20064;-61
2022/05/14 11:30:03;;;;;;;14.70;5.35;;;;;;;22.01;84.32;101101.00;5031831;28;20036;-61
2022/05/14 11:32:42;;;;;;;12.85;4.80;;;;;;;22.10;83.93;101107.41;5031079;28;20033;-61
2022/05/14 11:35:08;;;;;;;9.20;4.90;;;;;;;21.76;76.82;101053.25;5030429;28;20032;-61
2022/05/14 11:37:41;;;;;;;9.65;4.57;;;;;;;22.62;79.04;101106.31;5033931;28;20031;-61
2022/05/14 11:40:33;;;;;;;7.40;4.10;;;;;;;24.12;74.05;101120.09;5040471;28;20029;-61
2022/05/14 11:43:22;;;;;;;11.52;4.90;;;;;;;25.45;72.78;101099.78;5032440;28;20052;-61
2022/05/14 11:45:57;;;;;;;8.68;4.47;;;;;;;27.25;73.26;101110.31;5043663;28;20024;-59
2022/05/14 11:48:28;;;;;;;7.40;4.10;;;;;;;28.88;62.96;101107.16;5010383;28;20136;-61
2022/05/14 11:51:02;;;;;;;15.55;5.57;;;;;;;29.70;58.75;101075.75;5026686;28;20943;-61